sensor_id;sensor_type;location;lat;lon;timestamp;temperature;humidity
11599;DHT22;5855;48.840;9.188;2022-08-19T00:00:17;21.40;99.90
11599;DHT22;5855;48.840;9.188;2022-08-19T00:02:45;21.40;99.90
11599;DHT22;5855;48.840;9.188;2022-08-19T00:05:13;21.50;99.90
11599;DHT22;5855;48.840;9.188;2022-08-19T00:07:42;21.40;99.90
11599;DHT22;5855;48.840;9.188;2022-08-19T00:10:19;21.50;99.90
11599;DHT22;5855;48.840;9.188;2022-08-19T00:12:47;21.50;99.90
11599;DHT22;5855;48.840;9.188;2022-08-19T00:15:17;21.60;99.90
11599;DHT22;5855;48.840;9.188;2022-08-19T00:17:45;21.50;99.90
11599;DHT22;5855;48.840;9.188;2022-08-19T00:20:13;21.40;99.90
11599;DHT22;5855;48.840;9.188;2022-08-19T00:22:42;21.40;99.90
11599;DHT22;5855;48.840;9.188;2022-08-19T00:25:10;21.30;99.90
11599;DHT22;5855;48.840;9.188;2022-08-19T00:27:37;21.40;99.90
11599;DHT22;5855;48.840;9.188;2022-08-19T00:30:07;21.50;99.90
11599;DHT22;5855;48.840;9.188;2022-08-19T00:32:35;21.50;99.90
11599;DHT22;5855;48.840;9.188;2022-08-19T00:35:02;21.40;99.90
11599;DHT22;5855;48.840;9.188;2022-08-19T00:37:29;21.40;99.90
11599;DHT22;5855;48.840;9.188;2022-08-19T00:39:56;21.40;99.90
11599;DHT22;5855;48.840;9.188;2022-08-19T00:42:23;21.30;99.90
11599;DHT22;5855;48.840;9.188;2022-08-19T00:44:51;21.30;99.90
11599;DHT22;5855;48.840;9.188;2022-08-19T00:47:20;21.30;99.90
11599;DHT22;5855;48.840;9.188;2022-08-19T00:49:52;21.40;99.90
11599;DHT22;5855;48.840;9.188;2022-08-19T00:52:23;21.40;99.90
11599;DHT22;5855;48.840;9.188;2022-08-19T00:54:54;21.30;99.90
11599;DHT22;5855;48.840;9.188;2022-08-19T00:57:26;21.30;99.90
11599;DHT22;5855;48.840;9.188;2022-08-19T00:59:54;21.30;99.90
11599;DHT22;5855;48.840;9.188;2022-08-19T01:02:23;21.30;99.90
11599;DHT22;5855;48.840;9.188;2022-08-19T01:04:50;21.30;99.90
11599;DHT22;5855;48.840;9.188;2022-08-19T01:07:20;21.30;99.90
11599;DHT22;5855;48.840;9.188;2022-08-19T01:09:47;21.30;99.90
11599;DHT22;5855;48.840;9.188;2022-08-19T01:12:18;21.30;99.90
11599;DHT22;5855;48.840;9.188;2022-08-19T01:14:45;21.40;99.90
11599;DHT22;5855;48.840;9.188;2022-08-19T01:17:15;21.30;99.90
11599;DHT22;5855;48.840;9.188;2022-08-19T01:19:45;21.30;99.90
11599;DHT22;5855;48.840;9.188;2022-08-19T01:22:18;21.40;99.90
11599;DHT22;5855;48.840;9.188;2022-08-19T01:24:52;21.30;99.90
11599;DHT22;5855;48.840;9.188;2022-08-19T01:27:19;21.30;99.90
11599;DHT22;5855;48.840;9.188;2022-08-19T01:29:46;21.30;99.90
11599;DHT22;5855;48.840;9.188;2022-08-19T01:32:15;21.30;99.90
11599;DHT22;5855;48.840;9.188;2022-08-19T01:34:42;21.30;99.90
11599;DHT22;5855;48.840;9.188;2022-08-19T01:37:13;21.30;99.90
11599;DHT22;5855;48.840;9.188;2022-08-19T01:39:41;21.30;99.90
11599;DHT22;5855;48.840;9.188;2022-08-19T01:42:10;21.30;99.90
11599;DHT22;5855;48.840;9.188;2022-08-19T01:44:38;21.30;99.90
11599;DHT22;5855;48.840;9.188;2022-08-19T01:47:07;21.20;99.90
11599;DHT22;5855;48.840;9.188;2022-08-19T01:49:35;21.20;99.90
11599;DHT22;5855;48.840;9.188;2022-08-19T01:52:03;21.20;99.90
11599;DHT22;5855;48.840;9.188;2022-08-19T01:54:31;21.20;99.90
11599;DHT22;5855;48.840;9.188;2022-08-19T01:57:04;21.10;99.90
11599;DHT22;5855;48.840;9.188;2022-08-19T01:59:33;21.10;99.90
11599;DHT22;5855;48.840;9.188;2022-08-19T02:02:02;21.10;99.90
11599;DHT22;5855;48.840;9.188;2022-08-19T02:04:29;21.10;99.90
11599;DHT22;5855;48.840;9.188;2022-08-19T02:06:57;21.10;99.90
11599;DHT22;5855;48.840;9.188;2022-08-19T02:09:24;21.10;99.90
11599;DHT22;5855;48.840;9.188;2022-08-19T02:11:51;21.00;99.90
11599;DHT22;5855;48.840;9.188;2022-08-19T02:14:18;21.00;99.90
11599;DHT22;5855;48.840;9.188;2022-08-19T02:16:47;21.00;99.90
11599;DHT22;5855;48.840;9.188;2022-08-19T02:19:13;21.00;99.90
11599;DHT22;5855;48.840;9.188;2022-08-19T02:21:40;21.00;99.90
11599;DHT22;5855;48.840;9.188;2022-08-19T02:24:09;21.00;99.90
11599;DHT22;5855;48.840;9.188;2022-08-19T02:26:36;21.00;99.90
11599;DHT22;5855;48.840;9.188;2022-08-19T02:29:03;21.00;99.90
11599;DHT22;5855;48.840;9.188;2022-08-19T02:31:29;21.00;99.90
11599;DHT22;5855;48.840;9.188;2022-08-19T02:33:58;20.90;99.90
11599;DHT22;5855;48.840;9.188;2022-08-19T02:36:25;21.00;99.90
11599;DHT22;5855;48.840;9.188;2022-08-19T02:38:53;20.90;99.90
11599;DHT22;5855;48.840;9.188;2022-08-19T02:41:22;20.90;99.90
11599;DHT22;5855;48.840;9.188;2022-08-19T02:43:49;20.90;99.90
11599;DHT22;5855;48.840;9.188;2022-08-19T02:46:17;20.90;99.90
11599;DHT22;5855;48.840;9.188;2022-08-19T02:48:47;20.90;99.90
11599;DHT22;5855;48.840;9.188;2022-08-19T02:51:18;20.90;99.90
11599;DHT22;5855;48.840;9.188;2022-08-19T02:53:45;20.90;99.90
11599;DHT22;5855;48.840;9.188;2022-08-19T02:56:12;20.80;99.90
11599;DHT22;5855;48.840;9.188;2022-08-19T02:58:40;20.70;99.90
11599;DHT22;5855;48.840;9.188;2022-08-19T03:01:07;20.80;99.90
11599;DHT22;5855;48.840;9.188;2022-08-19T03:03:34;20.70;99.90
11599;DHT22;5855;48.840;9.188;2022-08-19T03:06:10;20.70;99.90
11599;DHT22;5855;48.840;9.188;2022-08-19T03:08:43;20.70;99.90
11599;DHT22;5855;48.840;9.188;2022-08-19T03:11:15;20.70;99.90
11599;DHT22;5855;48.840;9.188;2022-08-19T03:13:42;20.70;99.90
11599;DHT22;5855;48.840;9.188;2022-08-19T03:16:10;20.70;99.90
11599;DHT22;5855;48.840;9.188;2022-08-19T03:18:37;20.60;99.90
11599;DHT22;5855;48.840;9.188;2022-08-19T03:21:05;20.50;99.90
11599;DHT22;5855;48.840;9.188;2022-08-19T03:23:32;20.50;99.90
11599;DHT22;5855;48.840;9.188;2022-08-19T03:26:03;20.50;99.90
11599;DHT22;5855;48.840;9.188;2022-08-19T03:28:32;20.50;99.90
11599;DHT22;5855;48.840;9.188;2022-08-19T03:31:02;20.50;99.90
11599;DHT22;5855;48.840;9.188;2022-08-19T03:33:29;20.40;99.90
11599;DHT22;5855;48.840;9.188;2022-08-19T03:36:01;20.40;99.90
11599;DHT22;5855;48.840;9.188;2022-08-19T03:38:28;20.50;99.90
11599;DHT22;5855;48.840;9.188;2022-08-19T03:40:55;20.30;99.90
11599;DHT22;5855;48.840;9.188;2022-08-19T03:43:26;20.40;99.90
11599;DHT22;5855;48.840;9.188;2022-08-19T03:46:00;20.30;99.90
11599;DHT22;5855;48.840;9.188;2022-08-19T03:48:28;20.40;99.90
11599;DHT22;5855;48.840;9.188;2022-08-19T03:50:55;20.40;99.90
11599;DHT22;5855;48.840;9.188;2022-08-19T03:53:23;20.40;99.90
11599;DHT22;5855;48.840;9.188;2022-08-19T03:55:50;20.30;99.90
11599;DHT22;5855;48.840;9.188;2022-08-19T03:58:16;20.30;99.90
11599;DHT22;5855;48.840;9.188;2022-08-19T04:00:45;20.20;99.90
11599;DHT22;5855;48.840;9.188;2022-08-19T04:03:11;20.30;99.90
11599;DHT22;5855;48.840;9.188;2022-08-19T04:05:38;20.20;99.90
11599;DHT22;5855;48.840;9.188;2022-08-19T04:08:05;20.20;99.90
11599;DHT22;5855;48.840;9.188;2022-08-19T04:10:35;20.20;99.90
11599;DHT22;5855;48.840;9.188;2022-08-19T04:13:03;20.20;99.90
11599;DHT22;5855;48.840;9.188;2022-08-19T04:15:30;20.30;99.90
11599;DHT22;5855;48.840;9.188;2022-08-19T04:18:02;20.20;99.90
11599;DHT22;5855;48.840;9.188;2022-08-19T04:20:31;20.20;99.90
11599;DHT22;5855;48.840;9.188;2022-08-19T04:22:58;20.10;99.90
11599;DHT22;5855;48.840;9.188;2022-08-19T04:25:25;20.10;99.90
11599;DHT22;5855;48.840;9.188;2022-08-19T04:27:52;20.20;99.90
11599;DHT22;5855;48.840;9.188;2022-08-19T04:30:19;20.30;99.90
11599;DHT22;5855;48.840;9.188;2022-08-19T04:32:48;20.30;99.90
11599;DHT22;5855;48.840;9.188;2022-08-19T04:35:17;20.30;99.90
11599;DHT22;5855;48.840;9.188;2022-08-19T04:37:44;20.30;99.90
11599;DHT22;5855;48.840;9.188;2022-08-19T04:40:11;20.30;99.90
11599;DHT22;5855;48.840;9.188;2022-08-19T04:42:56;20.30;99.90
11599;DHT22;5855;48.840;9.188;2022-08-19T04:45:22;20.20;99.90
11599;DHT22;5855;48.840;9.188;2022-08-19T04:47:49;20.30;99.90
11599;DHT22;5855;48.840;9.188;2022-08-19T04:50:23;20.30;99.90
11599;DHT22;5855;48.840;9.188;2022-08-19T04:52:50;20.30;99.90
11599;DHT22;5855;48.840;9.188;2022-08-19T04:55:17;20.30;99.90
11599;DHT22;5855;48.840;9.188;2022-08-19T04:57:44;20.20;99.90
11599;DHT22;5855;48.840;9.188;2022-08-19T05:00:12;20.20;99.90
11599;DHT22;5855;48.840;9.188;2022-08-19T05:02:39;20.30;99.90
11599;DHT22;5855;48.840;9.188;2022-08-19T05:05:06;20.20;99.90
11599;DHT22;5855;48.840;9.188;2022-08-19T05:07:38;20.20;99.90
11599;DHT22;5855;48.840;9.188;2022-08-19T05:10:07;20.30;99.90
11599;DHT22;5855;48.840;9.188;2022-08-19T05:12:34;20.30;99.90
11599;DHT22;5855;48.840;9.188;2022-08-19T05:15:03;20.30;99.90
11599;DHT22;5855;48.840;9.188;2022-08-19T05:17:31;20.30;99.90
11599;DHT22;5855;48.840;9.188;2022-08-19T05:19:58;20.30;99.90
11599;DHT22;5855;48.840;9.188;2022-08-19T05:22:45;20.40;99.90
11599;DHT22;5855;48.840;9.188;2022-08-19T05:25:19;20.30;99.90
11599;DHT22;5855;48.840;9.188;2022-08-19T05:27:47;20.40;99.90
11599;DHT22;5855;48.840;9.188;2022-08-19T05:30:15;20.40;99.90
11599;DHT22;5855;48.840;9.188;2022-08-19T05:32:42;20.30;99.90
11599;DHT22;5855;48.840;9.188;2022-08-19T05:35:09;20.30;99.90
11599;DHT22;5855;48.840;9.188;2022-08-19T05:37:36;20.20;99.90
11599;DHT22;5855;48.840;9.188;2022-08-19T05:40:08;20.20;99.90
11599;DHT22;5855;48.840;9.188;2022-08-19T05:42:35;20.20;99.90
11599;DHT22;5855;48.840;9.188;2022-08-19T05:45:03;20.30;99.90
11599;DHT22;5855;48.840;9.188;2022-08-19T05:47:30;20.20;99.90
11599;DHT22;5855;48.840;9.188;2022-08-19T05:49:57;20.40;99.90
11599;DHT22;5855;48.840;9.188;2022-08-19T05:52:24;20.40;99.90
11599;DHT22;5855;48.840;9.188;2022-08-19T05:54:53;20.40;99.90
11599;DHT22;5855;48.840;9.188;2022-08-19T05:57:22;20.40;99.90
11599;DHT22;5855;48.840;9.188;2022-08-19T05:59:50;20.40;99.90
11599;DHT22;5855;48.840;9.188;2022-08-19T06:02:17;20.40;99.90
11599;DHT22;5855;48.840;9.188;2022-08-19T06:04:43;20.40;99.90
11599;DHT22;5855;48.840;9.188;2022-08-19T06:07:10;20.30;99.90
11599;DHT22;5855;48.840;9.188;2022-08-19T06:09:37;20.30;99.90
11599;DHT22;5855;48.840;9.188;2022-08-19T06:12:04;20.40;99.90
11599;DHT22;5855;48.840;9.188;2022-08-19T06:14:34;20.50;99.90
11599;DHT22;5855;48.840;9.188;2022-08-19T06:17:02;20.50;99.90
11599;DHT22;5855;48.840;9.188;2022-08-19T06:19:30;20.40;99.90
11599;DHT22;5855;48.840;9.188;2022-08-19T06:21:58;20.50;99.90
11599;DHT22;5855;48.840;9.188;2022-08-19T06:24:27;20.60;99.90
11599;DHT22;5855;48.840;9.188;2022-08-19T06:26:55;20.70;99.90
11599;DHT22;5855;48.840;9.188;2022-08-19T06:29:24;20.70;99.90
11599;DHT22;5855;48.840;9.188;2022-08-19T06:31:54;20.70;99.90
11599;DHT22;5855;48.840;9.188;2022-08-19T06:34:22;20.80;99.90
11599;DHT22;5855;48.840;9.188;2022-08-19T06:36:50;20.70;99.90
11599;DHT22;5855;48.840;9.188;2022-08-19T06:39:20;20.70;99.90
11599;DHT22;5855;48.840;9.188;2022-08-19T06:41:49;20.80;99.90
11599;DHT22;5855;48.840;9.188;2022-08-19T06:44:17;20.80;99.90
11599;DHT22;5855;48.840;9.188;2022-08-19T06:46:44;20.80;99.90
11599;DHT22;5855;48.840;9.188;2022-08-19T06:49:13;20.70;99.90
11599;DHT22;5855;48.840;9.188;2022-08-19T06:51:41;20.60;99.90
11599;DHT22;5855;48.840;9.188;2022-08-19T06:54:08;20.50;99.90
11599;DHT22;5855;48.840;9.188;2022-08-19T06:56:36;20.50;99.90
11599;DHT22;5855;48.840;9.188;2022-08-19T06:59:04;20.50;99.90
11599;DHT22;5855;48.840;9.188;2022-08-19T07:01:34;20.40;99.90
11599;DHT22;5855;48.840;9.188;2022-08-19T07:04:04;20.40;99.90
11599;DHT22;5855;48.840;9.188;2022-08-19T07:06:32;20.40;99.90
11599;DHT22;5855;48.840;9.188;2022-08-19T07:08:59;20.50;99.90
11599;DHT22;5855;48.840;9.188;2022-08-19T07:11:26;20.40;99.90
11599;DHT22;5855;48.840;9.188;2022-08-19T07:13:53;20.40;99.90
11599;DHT22;5855;48.840;9.188;2022-08-19T07:16:20;20.50;99.90
11599;DHT22;5855;48.840;9.188;2022-08-19T07:18:48;20.50;99.90
11599;DHT22;5855;48.840;9.188;2022-08-19T07:21:17;20.60;99.90
11599;DHT22;5855;48.840;9.188;2022-08-19T07:23:47;20.70;99.90
11599;DHT22;5855;48.840;9.188;2022-08-19T07:26:17;20.70;99.90
11599;DHT22;5855;48.840;9.188;2022-08-19T07:28:45;20.70;99.90
11599;DHT22;5855;48.840;9.188;2022-08-19T07:31:13;20.80;99.90
11599;DHT22;5855;48.840;9.188;2022-08-19T07:33:41;20.80;99.90
11599;DHT22;5855;48.840;9.188;2022-08-19T07:36:10;20.80;99.90
11599;DHT22;5855;48.840;9.188;2022-08-19T07:38:40;20.70;99.90
11599;DHT22;5855;48.840;9.188;2022-08-19T07:41:10;20.70;99.90
11599;DHT22;5855;48.840;9.188;2022-08-19T07:43:37;20.70;99.90
11599;DHT22;5855;48.840;9.188;2022-08-19T07:46:05;20.60;99.90
11599;DHT22;5855;48.840;9.188;2022-08-19T07:48:32;20.70;99.90
11599;DHT22;5855;48.840;9.188;2022-08-19T07:51:04;20.70;99.90
11599;DHT22;5855;48.840;9.188;2022-08-19T07:53:34;20.70;99.90
11599;DHT22;5855;48.840;9.188;2022-08-19T07:56:03;20.70;99.90
11599;DHT22;5855;48.840;9.188;2022-08-19T07:58:34;20.70;99.90
11599;DHT22;5855;48.840;9.188;2022-08-19T08:01:04;20.70;99.90
11599;DHT22;5855;48.840;9.188;2022-08-19T08:03:31;20.70;99.90
11599;DHT22;5855;48.840;9.188;2022-08-19T08:06:16;20.70;99.90
11599;DHT22;5855;48.840;9.188;2022-08-19T08:09:02;20.60;99.90
11599;DHT22;5855;48.840;9.188;2022-08-19T08:11:44;20.70;99.90
11599;DHT22;5855;48.840;9.188;2022-08-19T08:14:16;20.80;99.90
11599;DHT22;5855;48.840;9.188;2022-08-19T08:16:44;20.80;99.90
11599;DHT22;5855;48.840;9.188;2022-08-19T08:19:12;20.70;99.90
11599;DHT22;5855;48.840;9.188;2022-08-19T08:21:41;20.70;99.90
11599;DHT22;5855;48.840;9.188;2022-08-19T08:24:08;20.70;99.90
11599;DHT22;5855;48.840;9.188;2022-08-19T08:26:35;20.80;99.90
11599;DHT22;5855;48.840;9.188;2022-08-19T08:29:02;20.70;99.90
11599;DHT22;5855;48.840;9.188;2022-08-19T08:31:30;20.80;99.90
11599;DHT22;5855;48.840;9.188;2022-08-19T08:33:57;20.80;99.90
11599;DHT22;5855;48.840;9.188;2022-08-19T08:36:24;20.80;99.90
11599;DHT22;5855;48.840;9.188;2022-08-19T08:38:52;20.70;99.90
11599;DHT22;5855;48.840;9.188;2022-08-19T08:41:28;20.80;99.90
11599;DHT22;5855;48.840;9.188;2022-08-19T08:43:57;20.80;99.90
11599;DHT22;5855;48.840;9.188;2022-08-19T08:46:29;20.70;99.90
11599;DHT22;5855;48.840;9.188;2022-08-19T08:49:05;20.70;99.90
11599;DHT22;5855;48.840;9.188;2022-08-19T08:51:35;20.70;99.90
11599;DHT22;5855;48.840;9.188;2022-08-19T08:54:06;20.70;99.90
11599;DHT22;5855;48.840;9.188;2022-08-19T08:56:33;20.80;99.90
11599;DHT22;5855;48.840;9.188;2022-08-19T08:59:03;20.80;99.90
11599;DHT22;5855;48.840;9.188;2022-08-19T09:01:32;20.90;99.90
11599;DHT22;5855;48.840;9.188;2022-08-19T09:04:00;20.90;99.90
11599;DHT22;5855;48.840;9.188;2022-08-19T09:06:49;21.00;99.90
11599;DHT22;5855;48.840;9.188;2022-08-19T09:09:22;21.00;99.90
11599;DHT22;5855;48.840;9.188;2022-08-19T09:12:03;21.10;99.90
11599;DHT22;5855;48.840;9.188;2022-08-19T09:14:37;21.10;99.90
11599;DHT22;5855;48.840;9.188;2022-08-19T09:17:07;21.10;99.90
11599;DHT22;5855;48.840;9.188;2022-08-19T09:19:48;21.20;99.90
11599;DHT22;5855;48.840;9.188;2022-08-19T09:22:15;21.30;99.90
11599;DHT22;5855;48.840;9.188;2022-08-19T09:24:42;21.40;99.90
11599;DHT22;5855;48.840;9.188;2022-08-19T09:27:09;21.40;99.90
11599;DHT22;5855;48.840;9.188;2022-08-19T09:29:36;21.50;99.90
11599;DHT22;5855;48.840;9.188;2022-08-19T09:32:03;21.50;99.90
11599;DHT22;5855;48.840;9.188;2022-08-19T09:34:31;21.70;99.90
11599;DHT22;5855;48.840;9.188;2022-08-19T09:37:00;21.80;99.90
11599;DHT22;5855;48.840;9.188;2022-08-19T09:39:28;21.80;99.90
11599;DHT22;5855;48.840;9.188;2022-08-19T09:41:56;22.00;99.90
11599;DHT22;5855;48.840;9.188;2022-08-19T09:44:23;22.10;99.90
11599;DHT22;5855;48.840;9.188;2022-08-19T09:46:49;22.00;99.90
11599;DHT22;5855;48.840;9.188;2022-08-19T09:49:18;22.10;99.90
11599;DHT22;5855;48.840;9.188;2022-08-19T09:51:46;22.20;99.90
11599;DHT22;5855;48.840;9.188;2022-08-19T09:54:17;22.30;99.90
11599;DHT22;5855;48.840;9.188;2022-08-19T09:56:44;22.30;99.90
11599;DHT22;5855;48.840;9.188;2022-08-19T09:59:11;22.20;99.90
11599;DHT22;5855;48.840;9.188;2022-08-19T10:01:39;22.10;99.90
11599;DHT22;5855;48.840;9.188;2022-08-19T10:04:06;22.20;99.90
11599;DHT22;5855;48.840;9.188;2022-08-19T10:06:35;22.20;99.90
11599;DHT22;5855;48.840;9.188;2022-08-19T10:09:03;22.20;99.90
11599;DHT22;5855;48.840;9.188;2022-08-19T10:11:34;22.30;99.90
11599;DHT22;5855;48.840;9.188;2022-08-19T10:14:03;22.30;99.90
11599;DHT22;5855;48.840;9.188;2022-08-19T10:16:31;22.30;99.90
11599;DHT22;5855;48.840;9.188;2022-08-19T10:18:58;22.30;99.90
11599;DHT22;5855;48.840;9.188;2022-08-19T10:21:27;22.40;99.90
11599;DHT22;5855;48.840;9.188;2022-08-19T10:23:59;22.50;99.90
11599;DHT22;5855;48.840;9.188;2022-08-19T10:26:29;22.50;99.90
11599;DHT22;5855;48.840;9.188;2022-08-19T10:28:57;22.60;99.90
11599;DHT22;5855;48.840;9.188;2022-08-19T10:31:27;22.60;99.90
11599;DHT22;5855;48.840;9.188;2022-08-19T10:33:55;22.70;99.90
11599;DHT22;5855;48.840;9.188;2022-08-19T10:36:26;22.80;99.90
11599;DHT22;5855;48.840;9.188;2022-08-19T10:38:55;22.90;99.90
11599;DHT22;5855;48.840;9.188;2022-08-19T10:41:27;23.10;99.90
11599;DHT22;5855;48.840;9.188;2022-08-19T10:43:57;23.30;99.90
11599;DHT22;5855;48.840;9.188;2022-08-19T10:46:27;23.50;99.90
11599;DHT22;5855;48.840;9.188;2022-08-19T10:48:54;23.70;99.90
11599;DHT22;5855;48.840;9.188;2022-08-19T10:51:21;23.90;99.90
11599;DHT22;5855;48.840;9.188;2022-08-19T10:54:11;23.90;99.90
11599;DHT22;5855;48.840;9.188;2022-08-19T10:56:38;23.80;99.90
11599;DHT22;5855;48.840;9.188;2022-08-19T10:59:23;23.80;99.90
11599;DHT22;5855;48.840;9.188;2022-08-19T11:01:53;23.70;99.90
11599;DHT22;5855;48.840;9.188;2022-08-19T11:04:20;23.70;99.90
11599;DHT22;5855;48.840;9.188;2022-08-19T11:06:48;23.70;99.90
11599;DHT22;5855;48.840;9.188;2022-08-19T11:09:17;23.80;99.90
11599;DHT22;5855;48.840;9.188;2022-08-19T11:11:44;23.90;99.90
11599;DHT22;5855;48.840;9.188;2022-08-19T11:14:16;24.10;99.90
11599;DHT22;5855;48.840;9.188;2022-08-19T11:16:47;24.40;99.90
11599;DHT22;5855;48.840;9.188;2022-08-19T11:19:15;24.60;99.90
11599;DHT22;5855;48.840;9.188;2022-08-19T11:21:46;24.70;99.90
11599;DHT22;5855;48.840;9.188;2022-08-19T11:24:16;24.80;99.90
11599;DHT22;5855;48.840;9.188;2022-08-19T11:26:44;24.80;99.90
11599;DHT22;5855;48.840;9.188;2022-08-19T11:29:12;24.90;99.90
11599;DHT22;5855;48.840;9.188;2022-08-19T11:31:44;25.00;99.90
11599;DHT22;5855;48.840;9.188;2022-08-19T11:34:16;24.90;99.90
11599;DHT22;5855;48.840;9.188;2022-08-19T11:36:45;24.90;99.90
11599;DHT22;5855;48.840;9.188;2022-08-19T11:39:15;24.70;99.90
11599;DHT22;5855;48.840;9.188;2022-08-19T11:41:42;24.70;99.90
11599;DHT22;5855;48.840;9.188;2022-08-19T11:44:09;24.80;99.90
11599;DHT22;5855;48.840;9.188;2022-08-19T11:46:37;24.90;99.90
11599;DHT22;5855;48.840;9.188;2022-08-19T11:49:05;25.00;99.90
11599;DHT22;5855;48.840;9.188;2022-08-19T11:51:36;25.20;99.90
11599;DHT22;5855;48.840;9.188;2022-08-19T11:54:04;25.20;99.90
11599;DHT22;5855;48.840;9.188;2022-08-19T11:56:32;25.10;99.90
11599;DHT22;5855;48.840;9.188;2022-08-19T11:59:01;25.20;99.90
11599;DHT22;5855;48.840;9.188;2022-08-19T12:01:28;25.10;99.90
11599;DHT22;5855;48.840;9.188;2022-08-19T12:03:57;25.00;99.90
11599;DHT22;5855;48.840;9.188;2022-08-19T12:06:26;24.90;99.90
11599;DHT22;5855;48.840;9.188;2022-08-19T12:08:56;24.90;99.90
11599;DHT22;5855;48.840;9.188;2022-08-19T12:11:24;24.90;99.90
11599;DHT22;5855;48.840;9.188;2022-08-19T12:13:51;25.00;99.90
11599;DHT22;5855;48.840;9.188;2022-08-19T12:16:21;25.00;99.90
11599;DHT22;5855;48.840;9.188;2022-08-19T12:18:49;25.00;99.90
11599;DHT22;5855;48.840;9.188;2022-08-19T12:21:19;25.00;99.90
11599;DHT22;5855;48.840;9.188;2022-08-19T12:23:48;25.00;99.90
11599;DHT22;5855;48.840;9.188;2022-08-19T12:26:18;24.90;99.90
11599;DHT22;5855;48.840;9.188;2022-08-19T12:28:45;24.80;99.90
11599;DHT22;5855;48.840;9.188;2022-08-19T12:31:14;24.80;99.90
11599;DHT22;5855;48.840;9.188;2022-08-19T12:33:42;24.80;99.90
11599;DHT22;5855;48.840;9.188;2022-08-19T12:36:10;24.70;99.90
11599;DHT22;5855;48.840;9.188;2022-08-19T12:38:38;24.70;99.90
11599;DHT22;5855;48.840;9.188;2022-08-19T12:41:08;24.70;99.90
11599;DHT22;5855;48.840;9.188;2022-08-19T12:43:37;24.90;99.90
11599;DHT22;5855;48.840;9.188;2022-08-19T12:46:05;24.90;99.90
11599;DHT22;5855;48.840;9.188;2022-08-19T12:48:32;25.10;99.90
11599;DHT22;5855;48.840;9.188;2022-08-19T12:51:00;25.20;99.90
11599;DHT22;5855;48.840;9.188;2022-08-19T12:53:28;25.40;99.90
11599;DHT22;5855;48.840;9.188;2022-08-19T12:55:55;25.60;99.90
11599;DHT22;5855;48.840;9.188;2022-08-19T12:58:23;25.70;99.90
11599;DHT22;5855;48.840;9.188;2022-08-19T13:00:51;25.80;99.90
11599;DHT22;5855;48.840;9.188;2022-08-19T13:03:18;25.80;99.90
11599;DHT22;5855;48.840;9.188;2022-08-19T13:05:45;25.80;99.90
11599;DHT22;5855;48.840;9.188;2022-08-19T13:08:12;25.60;99.90
11599;DHT22;5855;48.840;9.188;2022-08-19T13:10:38;25.50;99.90
11599;DHT22;5855;48.840;9.188;2022-08-19T13:13:07;25.30;99.90
11599;DHT22;5855;48.840;9.188;2022-08-19T13:15:37;25.20;99.90
11599;DHT22;5855;48.840;9.188;2022-08-19T13:18:07;24.90;99.90
11599;DHT22;5855;48.840;9.188;2022-08-19T13:20:35;24.80;99.90
11599;DHT22;5855;48.840;9.188;2022-08-19T13:23:02;24.40;99.90
11599;DHT22;5855;48.840;9.188;2022-08-19T13:25:29;24.20;99.90
11599;DHT22;5855;48.840;9.188;2022-08-19T13:27:56;24.10;99.90
11599;DHT22;5855;48.840;9.188;2022-08-19T13:30:23;24.10;99.90
11599;DHT22;5855;48.840;9.188;2022-08-19T13:33:09;24.00;99.90
11599;DHT22;5855;48.840;9.188;2022-08-19T13:35:44;24.00;99.90
11599;DHT22;5855;48.840;9.188;2022-08-19T13:38:12;23.90;99.90
11599;DHT22;5855;48.840;9.188;2022-08-19T13:40:40;23.70;99.90
11599;DHT22;5855;48.840;9.188;2022-08-19T13:43:07;23.60;99.90
11599;DHT22;5855;48.840;9.188;2022-08-19T13:45:35;23.50;99.90
11599;DHT22;5855;48.840;9.188;2022-08-19T13:48:05;23.30;99.90
11599;DHT22;5855;48.840;9.188;2022-08-19T13:50:38;23.10;99.90
11599;DHT22;5855;48.840;9.188;2022-08-19T13:53:07;22.90;99.90
11599;DHT22;5855;48.840;9.188;2022-08-19T13:55:35;22.70;99.90
11599;DHT22;5855;48.840;9.188;2022-08-19T13:58:03;22.60;99.90
11599;DHT22;5855;48.840;9.188;2022-08-19T14:00:33;22.30;99.90
11599;DHT22;5855;48.840;9.188;2022-08-19T14:03:00;22.00;99.90
11599;DHT22;5855;48.840;9.188;2022-08-19T14:05:29;21.70;99.90
11599;DHT22;5855;48.840;9.188;2022-08-19T14:07:58;21.50;99.90
11599;DHT22;5855;48.840;9.188;2022-08-19T14:10:26;21.40;99.90
11599;DHT22;5855;48.840;9.188;2022-08-19T14:12:54;21.30;99.90
11599;DHT22;5855;48.840;9.188;2022-08-19T14:15:23;21.40;99.90
11599;DHT22;5855;48.840;9.188;2022-08-19T14:17:51;21.50;99.90
11599;DHT22;5855;48.840;9.188;2022-08-19T14:20:19;21.60;99.90
11599;DHT22;5855;48.840;9.188;2022-08-19T14:22:47;21.70;99.90
11599;DHT22;5855;48.840;9.188;2022-08-19T14:25:18;21.80;99.90
11599;DHT22;5855;48.840;9.188;2022-08-19T14:27:46;21.80;99.90
11599;DHT22;5855;48.840;9.188;2022-08-19T14:30:15;21.80;99.90
11599;DHT22;5855;48.840;9.188;2022-08-19T14:32:42;22.10;99.90
11599;DHT22;5855;48.840;9.188;2022-08-19T14:35:11;22.20;99.90
11599;DHT22;5855;48.840;9.188;2022-08-19T14:37:40;22.30;99.90
11599;DHT22;5855;48.840;9.188;2022-08-19T14:40:08;22.50;99.90
11599;DHT22;5855;48.840;9.188;2022-08-19T14:42:37;22.60;99.90
11599;DHT22;5855;48.840;9.188;2022-08-19T14:45:05;22.60;99.90
11599;DHT22;5855;48.840;9.188;2022-08-19T14:47:32;22.60;99.90
11599;DHT22;5855;48.840;9.188;2022-08-19T14:49:59;22.60;99.90
11599;DHT22;5855;48.840;9.188;2022-08-19T14:52:26;22.60;99.90
11599;DHT22;5855;48.840;9.188;2022-08-19T14:54:53;22.60;99.90
11599;DHT22;5855;48.840;9.188;2022-08-19T14:57:20;22.60;99.90
11599;DHT22;5855;48.840;9.188;2022-08-19T14:59:48;22.60;99.90
11599;DHT22;5855;48.840;9.188;2022-08-19T15:02:15;22.70;99.90
11599;DHT22;5855;48.840;9.188;2022-08-19T15:04:42;22.80;99.90
11599;DHT22;5855;48.840;9.188;2022-08-19T15:07:09;23.10;99.90
11599;DHT22;5855;48.840;9.188;2022-08-19T15:09:37;23.30;99.90
11599;DHT22;5855;48.840;9.188;2022-08-19T15:12:04;23.60;99.90
11599;DHT22;5855;48.840;9.188;2022-08-19T15:14:31;23.80;99.90
11599;DHT22;5855;48.840;9.188;2022-08-19T15:17:02;24.00;99.90
11599;DHT22;5855;48.840;9.188;2022-08-19T15:19:29;24.20;99.90
11599;DHT22;5855;48.840;9.188;2022-08-19T15:21:56;24.10;99.90
11599;DHT22;5855;48.840;9.188;2022-08-19T15:24:23;24.10;99.90
11599;DHT22;5855;48.840;9.188;2022-08-19T15:26:51;23.90;99.90
11599;DHT22;5855;48.840;9.188;2022-08-19T15:29:18;23.80;99.90
11599;DHT22;5855;48.840;9.188;2022-08-19T15:31:45;23.80;99.90
11599;DHT22;5855;48.840;9.188;2022-08-19T15:34:13;23.80;99.90
11599;DHT22;5855;48.840;9.188;2022-08-19T15:36:40;23.60;99.90
11599;DHT22;5855;48.840;9.188;2022-08-19T15:39:08;23.50;99.90
11599;DHT22;5855;48.840;9.188;2022-08-19T15:41:36;23.70;99.90
11599;DHT22;5855;48.840;9.188;2022-08-19T15:44:06;24.00;99.90
11599;DHT22;5855;48.840;9.188;2022-08-19T15:46:37;24.40;99.90
11599;DHT22;5855;48.840;9.188;2022-08-19T15:49:05;24.40;99.90
11599;DHT22;5855;48.840;9.188;2022-08-19T15:51:35;24.40;99.90
11599;DHT22;5855;48.840;9.188;2022-08-19T15:54:04;24.60;99.90